sensor_id;sensor_type;location;lat;lon;timestamp;temperature;humidity
11818;DHT22;5966;52.402;5.322;2023-04-28T00:00:00;9.20;99.90
11818;DHT22;5966;52.402;5.322;2023-04-28T00:02:30;9.20;99.90
11818;DHT22;5966;52.402;5.322;2023-04-28T00:04:58;9.20;99.90
11818;DHT22;5966;52.402;5.322;2023-04-28T00:07:26;9.20;99.90
11818;DHT22;5966;52.402;5.322;2023-04-28T00:09:54;9.20;99.90
11818;DHT22;5966;52.402;5.322;2023-04-28T00:12:23;9.10;99.90
11818;DHT22;5966;52.402;5.322;2023-04-28T00:14:51;9.10;99.90
11818;DHT22;5966;52.402;5.322;2023-04-28T00:17:20;9.20;99.90
11818;DHT22;5966;52.402;5.322;2023-04-28T00:19:50;9.10;99.90
11818;DHT22;5966;52.402;5.322;2023-04-28T00:22:18;9.10;99.90
11818;DHT22;5966;52.402;5.322;2023-04-28T00:24:46;9.10;99.90
11818;DHT22;5966;52.402;5.322;2023-04-28T00:27:14;9.10;99.90
11818;DHT22;5966;52.402;5.322;2023-04-28T00:29:42;9.00;99.90
11818;DHT22;5966;52.402;5.322;2023-04-28T00:32:10;9.10;99.90
11818;DHT22;5966;52.402;5.322;2023-04-28T00:34:39;9.00;99.90
11818;DHT22;5966;52.402;5.322;2023-04-28T00:37:08;9.00;99.90
11818;DHT22;5966;52.402;5.322;2023-04-28T00:39:36;8.90;99.90
11818;DHT22;5966;52.402;5.322;2023-04-28T00:42:04;8.90;99.90
11818;DHT22;5966;52.402;5.322;2023-04-28T00:44:32;8.90;99.90
11818;DHT22;5966;52.402;5.322;2023-04-28T00:47:00;8.80;99.90
11818;DHT22;5966;52.402;5.322;2023-04-28T00:49:29;8.80;99.90
11818;DHT22;5966;52.402;5.322;2023-04-28T00:51:57;8.80;99.90
11818;DHT22;5966;52.402;5.322;2023-04-28T00:54:31;8.80;99.90
11818;DHT22;5966;52.402;5.322;2023-04-28T00:57:00;8.80;99.90
11818;DHT22;5966;52.402;5.322;2023-04-28T00:59:30;8.80;99.90
11818;DHT22;5966;52.402;5.322;2023-04-28T01:01:59;8.80;99.90
11818;DHT22;5966;52.402;5.322;2023-04-28T01:04:28;8.80;99.90
11818;DHT22;5966;52.402;5.322;2023-04-28T01:06:57;8.80;99.90
11818;DHT22;5966;52.402;5.322;2023-04-28T01:09:27;8.80;99.90
11818;DHT22;5966;52.402;5.322;2023-04-28T01:11:56;8.80;99.90
11818;DHT22;5966;52.402;5.322;2023-04-28T01:14:24;8.80;99.90
11818;DHT22;5966;52.402;5.322;2023-04-28T01:16:52;8.80;99.90
11818;DHT22;5966;52.402;5.322;2023-04-28T01:19:21;8.80;99.90
11818;DHT22;5966;52.402;5.322;2023-04-28T01:21:50;8.70;99.90
11818;DHT22;5966;52.402;5.322;2023-04-28T01:24:19;8.70;99.90
11818;DHT22;5966;52.402;5.322;2023-04-28T01:26:47;8.70;99.90
11818;DHT22;5966;52.402;5.322;2023-04-28T01:29:15;8.70;99.90
11818;DHT22;5966;52.402;5.322;2023-04-28T01:31:43;8.70;99.90
11818;DHT22;5966;52.402;5.322;2023-04-28T01:34:11;8.70;99.90
11818;DHT22;5966;52.402;5.322;2023-04-28T01:36:39;8.70;99.90
11818;DHT22;5966;52.402;5.322;2023-04-28T01:39:07;8.70;99.90
11818;DHT22;5966;52.402;5.322;2023-04-28T01:41:36;8.70;99.90
11818;DHT22;5966;52.402;5.322;2023-04-28T01:44:04;8.60;99.90
11818;DHT22;5966;52.402;5.322;2023-04-28T01:46:33;8.60;99.90
11818;DHT22;5966;52.402;5.322;2023-04-28T01:49:02;8.60;99.90
11818;DHT22;5966;52.402;5.322;2023-04-28T01:51:30;8.60;99.90
11818;DHT22;5966;52.402;5.322;2023-04-28T01:53:58;8.60;99.90
11818;DHT22;5966;52.402;5.322;2023-04-28T01:56:26;8.60;99.90
11818;DHT22;5966;52.402;5.322;2023-04-28T01:58:55;8.60;99.90
11818;DHT22;5966;52.402;5.322;2023-04-28T02:01:23;8.60;99.90
11818;DHT22;5966;52.402;5.322;2023-04-28T02:03:51;8.60;99.90
11818;DHT22;5966;52.402;5.322;2023-04-28T02:06:21;8.60;99.90
11818;DHT22;5966;52.402;5.322;2023-04-28T02:08:49;8.60;99.90
11818;DHT22;5966;52.402;5.322;2023-04-28T02:11:17;8.60;99.90
11818;DHT22;5966;52.402;5.322;2023-04-28T02:13:45;8.60;99.90
11818;DHT22;5966;52.402;5.322;2023-04-28T02:16:14;8.60;99.90
11818;DHT22;5966;52.402;5.322;2023-04-28T02:18:42;8.60;99.90
11818;DHT22;5966;52.402;5.322;2023-04-28T02:21:11;8.60;99.90
11818;DHT22;5966;52.402;5.322;2023-04-28T02:23:39;8.60;99.90
11818;DHT22;5966;52.402;5.322;2023-04-28T02:26:07;8.60;99.90
11818;DHT22;5966;52.402;5.322;2023-04-28T02:28:34;8.60;99.90
11818;DHT22;5966;52.402;5.322;2023-04-28T02:31:04;8.60;99.90
11818;DHT22;5966;52.402;5.322;2023-04-28T02:33:33;8.60;99.90
11818;DHT22;5966;52.402;5.322;2023-04-28T02:36:02;8.50;99.90
11818;DHT22;5966;52.402;5.322;2023-04-28T02:38:30;8.50;99.90
11818;DHT22;5966;52.402;5.322;2023-04-28T02:40:58;8.50;99.90
11818;DHT22;5966;52.402;5.322;2023-04-28T02:43:26;8.50;99.90
11818;DHT22;5966;52.402;5.322;2023-04-28T02:45:54;8.50;99.90
11818;DHT22;5966;52.402;5.322;2023-04-28T02:48:23;8.50;99.90
11818;DHT22;5966;52.402;5.322;2023-04-28T02:50:52;8.50;99.90
11818;DHT22;5966;52.402;5.322;2023-04-28T02:53:21;8.50;99.90
11818;DHT22;5966;52.402;5.322;2023-04-28T02:55:49;8.50;99.90
11818;DHT22;5966;52.402;5.322;2023-04-28T02:58:17;8.50;99.90
11818;DHT22;5966;52.402;5.322;2023-04-28T03:00:45;8.50;99.90
11818;DHT22;5966;52.402;5.322;2023-04-28T03:03:13;8.50;99.90
11818;DHT22;5966;52.402;5.322;2023-04-28T03:05:42;8.40;99.90
11818;DHT22;5966;52.402;5.322;2023-04-28T03:08:11;8.40;99.90
11818;DHT22;5966;52.402;5.322;2023-04-28T03:10:39;8.40;99.90
11818;DHT22;5966;52.402;5.322;2023-04-28T03:13:07;8.40;99.90
11818;DHT22;5966;52.402;5.322;2023-04-28T03:15:35;8.30;99.90
11818;DHT22;5966;52.402;5.322;2023-04-28T03:18:03;8.30;99.90
11818;DHT22;5966;52.402;5.322;2023-04-28T03:20:31;8.30;99.90
11818;DHT22;5966;52.402;5.322;2023-04-28T03:22:58;8.30;99.90
11818;DHT22;5966;52.402;5.322;2023-04-28T03:25:29;8.30;99.90
11818;DHT22;5966;52.402;5.322;2023-04-28T03:27:57;8.30;99.90
11818;DHT22;5966;52.402;5.322;2023-04-28T03:30:27;8.30;99.90
11818;DHT22;5966;52.402;5.322;2023-04-28T03:32:55;8.30;99.90
11818;DHT22;5966;52.402;5.322;2023-04-28T03:35:23;8.30;99.90
11818;DHT22;5966;52.402;5.322;2023-04-28T03:37:51;8.20;99.90
11818;DHT22;5966;52.402;5.322;2023-04-28T03:40:19;8.20;99.90
11818;DHT22;5966;52.402;5.322;2023-04-28T03:42:49;8.20;99.90
11818;DHT22;5966;52.402;5.322;2023-04-28T03:45:17;8.20;99.90
11818;DHT22;5966;52.402;5.322;2023-04-28T03:47:45;8.20;99.90
11818;DHT22;5966;52.402;5.322;2023-04-28T03:50:12;8.20;99.90
11818;DHT22;5966;52.402;5.322;2023-04-28T03:52:40;8.20;99.90
11818;DHT22;5966;52.402;5.322;2023-04-28T03:55:09;8.20;99.90
11818;DHT22;5966;52.402;5.322;2023-04-28T03:57:37;8.20;99.90
11818;DHT22;5966;52.402;5.322;2023-04-28T04:00:07;8.20;99.90
11818;DHT22;5966;52.402;5.322;2023-04-28T04:02:36;8.20;99.90
11818;DHT22;5966;52.402;5.322;2023-04-28T04:05:04;8.20;99.90
11818;DHT22;5966;52.402;5.322;2023-04-28T04:07:33;8.20;99.90
11818;DHT22;5966;52.402;5.322;2023-04-28T04:10:01;8.20;99.90
11818;DHT22;5966;52.402;5.322;2023-04-28T04:12:30;8.20;99.90
11818;DHT22;5966;52.402;5.322;2023-04-28T04:14:58;8.20;99.90
11818;DHT22;5966;52.402;5.322;2023-04-28T04:17:27;8.20;99.90
11818;DHT22;5966;52.402;5.322;2023-04-28T04:19:55;8.20;99.90
11818;DHT22;5966;52.402;5.322;2023-04-28T04:22:23;8.20;99.90
11818;DHT22;5966;52.402;5.322;2023-04-28T04:24:51;8.20;99.90
11818;DHT22;5966;52.402;5.322;2023-04-28T04:27:19;8.20;99.90
11818;DHT22;5966;52.402;5.322;2023-04-28T04:29:47;8.20;99.90
11818;DHT22;5966;52.402;5.322;2023-04-28T04:32:15;8.20;99.90
11818;DHT22;5966;52.402;5.322;2023-04-28T04:34:44;8.20;99.90
11818;DHT22;5966;52.402;5.322;2023-04-28T04:37:12;8.20;99.90
11818;DHT22;5966;52.402;5.322;2023-04-28T04:39:40;8.20;99.90
11818;DHT22;5966;52.402;5.322;2023-04-28T04:42:08;8.20;99.90
11818;DHT22;5966;52.402;5.322;2023-04-28T04:44:50;8.20;99.90
11818;DHT22;5966;52.402;5.322;2023-04-28T04:47:18;8.20;99.90
11818;DHT22;5966;52.402;5.322;2023-04-28T04:49:48;8.20;99.90
11818;DHT22;5966;52.402;5.322;2023-04-28T04:52:16;8.30;99.90
11818;DHT22;5966;52.402;5.322;2023-04-28T04:54:44;8.30;99.90
11818;DHT22;5966;52.402;5.322;2023-04-28T04:57:12;8.30;99.90
11818;DHT22;5966;52.402;5.322;2023-04-28T04:59:40;8.30;99.90
11818;DHT22;5966;52.402;5.322;2023-04-28T05:02:08;8.30;99.90
11818;DHT22;5966;52.402;5.322;2023-04-28T05:04:37;8.40;99.90
11818;DHT22;5966;52.402;5.322;2023-04-28T05:07:06;8.30;99.90
11818;DHT22;5966;52.402;5.322;2023-04-28T05:09:34;8.30;99.90
11818;DHT22;5966;52.402;5.322;2023-04-28T05:12:02;8.40;99.90
11818;DHT22;5966;52.402;5.322;2023-04-28T05:14:30;8.40;99.90
11818;DHT22;5966;52.402;5.322;2023-04-28T05:16:58;8.40;99.90
11818;DHT22;5966;52.402;5.322;2023-04-28T05:19:26;8.40;99.90
11818;DHT22;5966;52.402;5.322;2023-04-28T05:21:54;8.40;99.90
11818;DHT22;5966;52.402;5.322;2023-04-28T05:24:23;8.40;99.90
11818;DHT22;5966;52.402;5.322;2023-04-28T05:26:52;8.40;99.90
11818;DHT22;5966;52.402;5.322;2023-04-28T05:29:20;8.50;99.90
11818;DHT22;5966;52.402;5.322;2023-04-28T05:31:48;8.50;99.90
11818;DHT22;5966;52.402;5.322;2023-04-28T05:34:16;8.50;99.90
11818;DHT22;5966;52.402;5.322;2023-04-28T05:36:44;8.50;99.90
11818;DHT22;5966;52.402;5.322;2023-04-28T05:39:12;8.60;99.90
11818;DHT22;5966;52.402;5.322;2023-04-28T05:41:41;8.60;99.90
11818;DHT22;5966;52.402;5.322;2023-04-28T05:44:09;8.60;99.90
11818;DHT22;5966;52.402;5.322;2023-04-28T05:46:37;8.60;99.90
11818;DHT22;5966;52.402;5.322;2023-04-28T05:49:05;8.70;99.90
11818;DHT22;5966;52.402;5.322;2023-04-28T05:51:33;8.70;99.90
11818;DHT22;5966;52.402;5.322;2023-04-28T05:54:01;8.80;99.90
11818;DHT22;5966;52.402;5.322;2023-04-28T05:56:29;8.80;99.90
11818;DHT22;5966;52.402;5.322;2023-04-28T05:58:59;8.70;99.90
11818;DHT22;5966;52.402;5.322;2023-04-28T06:01:29;8.50;99.90
11818;DHT22;5966;52.402;5.322;2023-04-28T06:03:58;8.30;99.90
11818;DHT22;5966;52.402;5.322;2023-04-28T06:06:26;8.10;99.90
11818;DHT22;5966;52.402;5.322;2023-04-28T06:08:54;7.90;99.90
11818;DHT22;5966;52.402;5.322;2023-04-28T06:11:22;7.80;99.90
11818;DHT22;5966;52.402;5.322;2023-04-28T06:13:50;7.80;99.90
11818;DHT22;5966;52.402;5.322;2023-04-28T06:16:20;7.80;99.90
11818;DHT22;5966;52.402;5.322;2023-04-28T06:18:49;7.80;99.90
11818;DHT22;5966;52.402;5.322;2023-04-28T06:21:17;7.80;99.90
11818;DHT22;5966;52.402;5.322;2023-04-28T06:23:46;7.90;99.90
11818;DHT22;5966;52.402;5.322;2023-04-28T06:26:14;8.00;99.90
11818;DHT22;5966;52.402;5.322;2023-04-28T06:28:44;8.20;99.90
11818;DHT22;5966;52.402;5.322;2023-04-28T06:31:12;8.30;99.90
11818;DHT22;5966;52.402;5.322;2023-04-28T06:33:41;8.40;99.90
11818;DHT22;5966;52.402;5.322;2023-04-28T06:36:09;8.50;99.90
11818;DHT22;5966;52.402;5.322;2023-04-28T06:38:39;8.50;99.90
11818;DHT22;5966;52.402;5.322;2023-04-28T06:41:09;8.50;99.90
11818;DHT22;5966;52.402;5.322;2023-04-28T06:43:37;8.50;99.90
11818;DHT22;5966;52.402;5.322;2023-04-28T06:46:05;8.60;99.90
11818;DHT22;5966;52.402;5.322;2023-04-28T06:48:33;8.60;99.90
11818;DHT22;5966;52.402;5.322;2023-04-28T06:51:03;8.60;99.90
11818;DHT22;5966;52.402;5.322;2023-04-28T06:53:31;8.70;99.90
11818;DHT22;5966;52.402;5.322;2023-04-28T06:55:59;8.70;99.90
11818;DHT22;5966;52.402;5.322;2023-04-28T06:58:28;8.80;99.90
11818;DHT22;5966;52.402;5.322;2023-04-28T07:00:56;8.70;99.90
11818;DHT22;5966;52.402;5.322;2023-04-28T07:03:25;8.70;99.90
11818;DHT22;5966;52.402;5.322;2023-04-28T07:05:53;8.70;99.90
11818;DHT22;5966;52.402;5.322;2023-04-28T07:08:22;8.70;99.90
11818;DHT22;5966;52.402;5.322;2023-04-28T07:10:50;8.70;99.90
11818;DHT22;5966;52.402;5.322;2023-04-28T07:13:18;8.80;99.90
11818;DHT22;5966;52.402;5.322;2023-04-28T07:15:46;8.80;99.90
11818;DHT22;5966;52.402;5.322;2023-04-28T07:18:14;8.80;99.90
11818;DHT22;5966;52.402;5.322;2023-04-28T07:20:42;8.80;99.90
11818;DHT22;5966;52.402;5.322;2023-04-28T07:23:10;8.90;99.90
11818;DHT22;5966;52.402;5.322;2023-04-28T07:25:40;8.90;99.90
11818;DHT22;5966;52.402;5.322;2023-04-28T07:28:08;8.80;99.90
11818;DHT22;5966;52.402;5.322;2023-04-28T07:30:36;8.80;99.90
11818;DHT22;5966;52.402;5.322;2023-04-28T07:33:04;8.90;99.90
11818;DHT22;5966;52.402;5.322;2023-04-28T07:35:32;8.90;99.90
11818;DHT22;5966;52.402;5.322;2023-04-28T07:38:01;8.90;99.90
11818;DHT22;5966;52.402;5.322;2023-04-28T07:40:29;8.90;99.90
11818;DHT22;5966;52.402;5.322;2023-04-28T07:42:58;9.00;99.90
11818;DHT22;5966;52.402;5.322;2023-04-28T07:45:26;9.00;99.90
11818;DHT22;5966;52.402;5.322;2023-04-28T07:47:54;9.10;99.90
11818;DHT22;5966;52.402;5.322;2023-04-28T07:50:22;9.10;99.90
11818;DHT22;5966;52.402;5.322;2023-04-28T07:52:50;9.20;99.90
11818;DHT22;5966;52.402;5.322;2023-04-28T07:55:18;9.20;99.90
11818;DHT22;5966;52.402;5.322;2023-04-28T07:57:47;9.30;99.90
11818;DHT22;5966;52.402;5.322;2023-04-28T08:00:16;9.40;99.90
11818;DHT22;5966;52.402;5.322;2023-04-28T08:02:44;9.40;99.90
11818;DHT22;5966;52.402;5.322;2023-04-28T08:05:13;9.50;99.90
11818;DHT22;5966;52.402;5.322;2023-04-28T08:07:41;9.50;99.90
11818;DHT22;5966;52.402;5.322;2023-04-28T08:10:10;9.60;99.90
11818;DHT22;5966;52.402;5.322;2023-04-28T08:12:38;9.60;99.90
11818;DHT22;5966;52.402;5.322;2023-04-28T08:15:08;9.60;99.90
11818;DHT22;5966;52.402;5.322;2023-04-28T08:17:38;9.70;99.90
11818;DHT22;5966;52.402;5.322;2023-04-28T08:20:07;9.70;99.90
11818;DHT22;5966;52.402;5.322;2023-04-28T08:22:35;9.80;99.90
11818;DHT22;5966;52.402;5.322;2023-04-28T08:25:04;9.90;99.90
11818;DHT22;5966;52.402;5.322;2023-04-28T08:27:32;9.90;99.90
11818;DHT22;5966;52.402;5.322;2023-04-28T08:30:04;10.00;99.90
11818;DHT22;5966;52.402;5.322;2023-04-28T08:32:32;10.10;99.90
11818;DHT22;5966;52.402;5.322;2023-04-28T08:35:02;10.20;99.90
11818;DHT22;5966;52.402;5.322;2023-04-28T08:37:30;10.30;99.90
11818;DHT22;5966;52.402;5.322;2023-04-28T08:39:58;10.40;99.90
11818;DHT22;5966;52.402;5.322;2023-04-28T08:42:34;10.40;99.90
11818;DHT22;5966;52.402;5.322;2023-04-28T08:45:03;10.40;99.90
11818;DHT22;5966;52.402;5.322;2023-04-28T08:47:34;10.50;99.90
11818;DHT22;5966;52.402;5.322;2023-04-28T08:50:05;10.60;99.90
11818;DHT22;5966;52.402;5.322;2023-04-28T08:52:35;10.70;99.90
11818;DHT22;5966;52.402;5.322;2023-04-28T08:55:06;10.80;99.90
11818;DHT22;5966;52.402;5.322;2023-04-28T08:57:38;10.80;99.90
11818;DHT22;5966;52.402;5.322;2023-04-28T09:00:08;10.90;99.90
11818;DHT22;5966;52.402;5.322;2023-04-28T09:02:36;11.00;99.90
11818;DHT22;5966;52.402;5.322;2023-04-28T09:05:10;11.00;99.90
11818;DHT22;5966;52.402;5.322;2023-04-28T09:07:39;11.10;99.90
11818;DHT22;5966;52.402;5.322;2023-04-28T09:10:18;11.10;99.90
11818;DHT22;5966;52.402;5.322;2023-04-28T09:12:49;11.10;99.90
11818;DHT22;5966;52.402;5.322;2023-04-28T09:15:28;11.20;99.90
11818;DHT22;5966;52.402;5.322;2023-04-28T09:18:00;11.20;99.90
11818;DHT22;5966;52.402;5.322;2023-04-28T09:20:31;11.20;99.90
11818;DHT22;5966;52.402;5.322;2023-04-28T09:23:13;11.20;99.90
11818;DHT22;5966;52.402;5.322;2023-04-28T09:25:58;11.30;99.90
11818;DHT22;5966;52.402;5.322;2023-04-28T09:28:35;11.30;99.90
11818;DHT22;5966;52.402;5.322;2023-04-28T09:31:03;11.30;99.90
11818;DHT22;5966;52.402;5.322;2023-04-28T09:33:31;11.30;99.90
11818;DHT22;5966;52.402;5.322;2023-04-28T09:36:00;11.30;99.90
11818;DHT22;5966;52.402;5.322;2023-04-28T09:38:29;11.40;99.90
11818;DHT22;5966;52.402;5.322;2023-04-28T09:40:57;11.40;99.90
11818;DHT22;5966;52.402;5.322;2023-04-28T09:43:27;11.50;99.90
11818;DHT22;5966;52.402;5.322;2023-04-28T09:45:57;11.50;99.90
11818;DHT22;5966;52.402;5.322;2023-04-28T09:48:27;11.50;99.90
11818;DHT22;5966;52.402;5.322;2023-04-28T09:50:55;11.60;99.90
11818;DHT22;5966;52.402;5.322;2023-04-28T09:53:26;11.60;99.90
11818;DHT22;5966;52.402;5.322;2023-04-28T09:55:55;11.60;99.90
11818;DHT22;5966;52.402;5.322;2023-04-28T09:58:25;11.70;99.90
11818;DHT22;5966;52.402;5.322;2023-04-28T10:00:55;11.70;99.90
11818;DHT22;5966;52.402;5.322;2023-04-28T10:03:25;11.80;99.90
11818;DHT22;5966;52.402;5.322;2023-04-28T10:05:56;11.80;99.90
11818;DHT22;5966;52.402;5.322;2023-04-28T10:08:26;11.90;99.90
11818;DHT22;5966;52.402;5.322;2023-04-28T10:10:55;12.00;99.90
11818;DHT22;5966;52.402;5.322;2023-04-28T10:13:24;12.00;99.90
11818;DHT22;5966;52.402;5.322;2023-04-28T10:15:52;12.10;99.90
11818;DHT22;5966;52.402;5.322;2023-04-28T10:18:22;12.10;99.90
11818;DHT22;5966;52.402;5.322;2023-04-28T10:20:54;12.10;99.90
11818;DHT22;5966;52.402;5.322;2023-04-28T10:23:48;12.10;99.90
11818;DHT22;5966;52.402;5.322;2023-04-28T10:26:19;12.10;99.90
11818;DHT22;5966;52.402;5.322;2023-04-28T10:28:50;12.10;99.90
11818;DHT22;5966;52.402;5.322;2023-04-28T10:31:20;12.10;99.90
11818;DHT22;5966;52.402;5.322;2023-04-28T10:33:49;12.10;99.90
11818;DHT22;5966;52.402;5.322;2023-04-28T10:36:47;12.10;99.90
11818;DHT22;5966;52.402;5.322;2023-04-28T10:39:17;12.10;99.90
11818;DHT22;5966;52.402;5.322;2023-04-28T10:41:46;12.10;99.90
11818;DHT22;5966;52.402;5.322;2023-04-28T10:44:40;12.20;99.90
11818;DHT22;5966;52.402;5.322;2023-04-28T10:47:09;12.20;99.90
11818;DHT22;5966;52.402;5.322;2023-04-28T10:50:08;12.20;99.90
11818;DHT22;5966;52.402;5.322;2023-04-28T10:52:49;12.20;99.90
11818;DHT22;5966;52.402;5.322;2023-04-28T10:55:32;12.20;99.90
11818;DHT22;5966;52.402;5.322;2023-04-28T10:58:30;12.30;99.90
11818;DHT22;5966;52.402;5.322;2023-04-28T11:01:23;12.30;99.90
11818;DHT22;5966;52.402;5.322;2023-04-28T11:03:53;12.30;99.90
11818;DHT22;5966;52.402;5.322;2023-04-28T11:06:28;12.40;99.90
11818;DHT22;5966;52.402;5.322;2023-04-28T11:08:58;12.40;99.90
11818;DHT22;5966;52.402;5.322;2023-04-28T11:11:29;12.40;99.90
11818;DHT22;5966;52.402;5.322;2023-04-28T11:14:30;12.50;99.90
11818;DHT22;5966;52.402;5.322;2023-04-28T11:16:59;12.60;99.90
11818;DHT22;5966;52.402;5.322;2023-04-28T11:19:30;12.60;99.90
11818;DHT22;5966;52.402;5.322;2023-04-28T11:22:00;12.60;99.90
11818;DHT22;5966;52.402;5.322;2023-04-28T11:24:29;12.70;99.90
11818;DHT22;5966;52.402;5.322;2023-04-28T11:26:59;12.70;99.90
11818;DHT22;5966;52.402;5.322;2023-04-28T11:29:31;12.70;99.90
11818;DHT22;5966;52.402;5.322;2023-04-28T11:32:01;12.80;99.90
11818;DHT22;5966;52.402;5.322;2023-04-28T11:34:29;12.80;99.90
11818;DHT22;5966;52.402;5.322;2023-04-28T11:36:57;12.80;99.90
11818;DHT22;5966;52.402;5.322;2023-04-28T11:39:26;12.80;99.90
11818;DHT22;5966;52.402;5.322;2023-04-28T11:41:56;12.90;99.90
11818;DHT22;5966;52.402;5.322;2023-04-28T11:44:27;13.00;99.90
11818;DHT22;5966;52.402;5.322;2023-04-28T11:46:57;13.00;99.90
11818;DHT22;5966;52.402;5.322;2023-04-28T11:49:29;12.90;99.90
11818;DHT22;5966;52.402;5.322;2023-04-28T11:51:57;12.90;99.90
11818;DHT22;5966;52.402;5.322;2023-04-28T11:54:31;12.90;99.90
11818;DHT22;5966;52.402;5.322;2023-04-28T11:57:00;12.90;99.90
11818;DHT22;5966;52.402;5.322;2023-04-28T11:59:32;13.00;99.90
11818;DHT22;5966;52.402;5.322;2023-04-28T12:02:02;12.90;99.90
11818;DHT22;5966;52.402;5.322;2023-04-28T12:04:31;12.90;99.90
11818;DHT22;5966;52.402;5.322;2023-04-28T12:07:03;12.90;99.90
11818;DHT22;5966;52.402;5.322;2023-04-28T12:09:32;13.00;99.90
11818;DHT22;5966;52.402;5.322;2023-04-28T12:12:02;13.00;99.90
11818;DHT22;5966;52.402;5.322;2023-04-28T12:14:52;13.00;99.90
11818;DHT22;5966;52.402;5.322;2023-04-28T12:17:24;13.00;99.90
11818;DHT22;5966;52.402;5.322;2023-04-28T12:19:52;13.00;99.90
11818;DHT22;5966;52.402;5.322;2023-04-28T12:22:21;13.10;99.90
11818;DHT22;5966;52.402;5.322;2023-04-28T12:25:02;13.10;99.90
11818;DHT22;5966;52.402;5.322;2023-04-28T12:27:31;13.20;99.90
11818;DHT22;5966;52.402;5.322;2023-04-28T12:30:00;13.30;99.90
11818;DHT22;5966;52.402;5.322;2023-04-28T12:32:38;13.40;99.90
11818;DHT22;5966;52.402;5.322;2023-04-28T12:35:07;13.40;99.90
11818;DHT22;5966;52.402;5.322;2023-04-28T12:37:36;13.40;99.90
11818;DHT22;5966;52.402;5.322;2023-04-28T12:40:06;13.40;99.90
11818;DHT22;5966;52.402;5.322;2023-04-28T12:42:35;13.40;99.90
11818;DHT22;5966;52.402;5.322;2023-04-28T12:45:05;13.40;99.90
11818;DHT22;5966;52.402;5.322;2023-04-28T12:47:34;13.50;99.90
11818;DHT22;5966;52.402;5.322;2023-04-28T12:50:04;13.50;99.90
11818;DHT22;5966;52.402;5.322;2023-04-28T12:52:32;13.60;99.90
11818;DHT22;5966;52.402;5.322;2023-04-28T12:55:01;13.60;99.90
11818;DHT22;5966;52.402;5.322;2023-04-28T12:57:29;13.60;99.90
11818;DHT22;5966;52.402;5.322;2023-04-28T12:59:57;13.70;99.90
11818;DHT22;5966;52.402;5.322;2023-04-28T13:02:27;13.70;99.90
11818;DHT22;5966;52.402;5.322;2023-04-28T13:04:55;13.70;99.90
11818;DHT22;5966;52.402;5.322;2023-04-28T13:07:23;13.70;99.90
11818;DHT22;5966;52.402;5.322;2023-04-28T13:09:51;13.60;99.90
11818;DHT22;5966;52.402;5.322;2023-04-28T13:12:19;13.60;99.90
11818;DHT22;5966;52.402;5.322;2023-04-28T13:14:47;13.50;99.90
11818;DHT22;5966;52.402;5.322;2023-04-28T13:17:15;13.50;99.90
11818;DHT22;5966;52.402;5.322;2023-04-28T13:19:45;13.40;99.90
11818;DHT22;5966;52.402;5.322;2023-04-28T13:22:13;13.40;99.90
11818;DHT22;5966;52.402;5.322;2023-04-28T13:24:42;13.40;99.90
11818;DHT22;5966;52.402;5.322;2023-04-28T13:27:10;13.40;99.90
11818;DHT22;5966;52.402;5.322;2023-04-28T13:29:38;13.40;99.90
11818;DHT22;5966;52.402;5.322;2023-04-28T13:32:06;13.40;99.90
11818;DHT22;5966;52.402;5.322;2023-04-28T13:34:34;13.40;99.90
11818;DHT22;5966;52.402;5.322;2023-04-28T13:37:05;13.40;99.90
11818;DHT22;5966;52.402;5.322;2023-04-28T13:39:33;13.40;99.90
11818;DHT22;5966;52.402;5.322;2023-04-28T13:42:01;13.40;99.90
11818;DHT22;5966;52.402;5.322;2023-04-28T13:44:29;13.40;99.90
11818;DHT22;5966;52.402;5.322;2023-04-28T13:46:57;13.40;99.90
11818;DHT22;5966;52.402;5.322;2023-04-28T13:49:25;13.40;99.90
11818;DHT22;5966;52.402;5.322;2023-04-28T13:51:53;13.30;99.90
11818;DHT22;5966;52.402;5.322;2023-04-28T13:54:23;13.20;99.90
11818;DHT22;5966;52.402;5.322;2023-04-28T13:56:51;13.20;99.90
11818;DHT22;5966;52.402;5.322;2023-04-28T13:59:19;13.10;99.90
11818;DHT22;5966;52.402;5.322;2023-04-28T14:01:47;13.10;99.90
11818;DHT22;5966;52.402;5.322;2023-04-28T14:04:15;13.10;99.90
11818;DHT22;5966;52.402;5.322;2023-04-28T14:06:43;13.20;99.90
11818;DHT22;5966;52.402;5.322;2023-04-28T14:09:11;13.20;99.90
11818;DHT22;5966;52.402;5.322;2023-04-28T14:11:41;13.20;99.90
11818;DHT22;5966;52.402;5.322;2023-04-28T14:14:08;13.20;99.90
11818;DHT22;5966;52.402;5.322;2023-04-28T14:16:36;13.20;99.90
11818;DHT22;5966;52.402;5.322;2023-04-28T14:19:04;13.20;99.90
11818;DHT22;5966;52.402;5.322;2023-04-28T14:21:32;13.10;99.90
11818;DHT22;5966;52.402;5.322;2023-04-28T14:24:00;13.10;99.90
11818;DHT22;5966;52.402;5.322;2023-04-28T14:26:28;13.00;99.90
11818;DHT22;5966;52.402;5.322;2023-04-28T14:28:58;13.00;99.90
11818;DHT22;5966;52.402;5.322;2023-04-28T14:31:26;13.00;99.90
11818;DHT22;5966;52.402;5.322;2023-04-28T14:33:55;13.00;99.90
11818;DHT22;5966;52.402;5.322;2023-04-28T14:36:23;13.00;99.90
11818;DHT22;5966;52.402;5.322;2023-04-28T14:38:51;13.00;99.90
11818;DHT22;5966;52.402;5.322;2023-04-28T14:41:18;13.00;99.90
11818;DHT22;5966;52.402;5.322;2023-04-28T14:43:46;13.00;99.90
11818;DHT22;5966;52.402;5.322;2023-04-28T14:46:16;13.00;99.90
11818;DHT22;5966;52.402;5.322;2023-04-28T14:48:48;12.90;99.90
11818;DHT22;5966;52.402;5.322;2023-04-28T14:51:17;12.90;99.90
11818;DHT22;5966;52.402;5.322;2023-04-28T14:53:45;13.00;99.90
11818;DHT22;5966;52.402;5.322;2023-04-28T14:56:14;13.00;99.90
11818;DHT22;5966;52.402;5.322;2023-04-28T14:58:45;13.10;99.90
11818;DHT22;5966;52.402;5.322;2023-04-28T15:01:13;13.10;99.90
11818;DHT22;5966;52.402;5.322;2023-04-28T15:03:43;13.10;99.90
11818;DHT22;5966;52.402;5.322;2023-04-28T15:06:11;13.10;99.90
11818;DHT22;5966;52.402;5.322;2023-04-28T15:08:39;13.10;99.90
11818;DHT22;5966;52.402;5.322;2023-04-28T15:11:07;13.10;99.90
11818;DHT22;5966;52.402;5.322;2023-04-28T15:13:35;13.20;99.90
11818;DHT22;5966;52.402;5.322;2023-04-28T15:16:05;13.20;99.90
11818;DHT22;5966;52.402;5.322;2023-04-28T15:18:33;13.20;99.90
11818;DHT22;5966;52.402;5.322;2023-04-28T15:21:03;13.30;99.90
11818;DHT22;5966;52.402;5.322;2023-04-28T15:23:31;13.20;99.90
11818;DHT22;5966;52.402;5.322;2023-04-28T15:25:59;13.20;99.90
11818;DHT22;5966;52.402;5.322;2023-04-28T15:28:27;13.20;99.90
11818;DHT22;5966;52.402;5.322;2023-04-28T15:30:54;13.20;99.90
11818;DHT22;5966;52.402;5.322;2023-04-28T15:33:22;13.20;99.90
11818;DHT22;5966;52.402;5.322;2023-04-28T15:35:51;13.20;99.90
11818;DHT22;5966;52.402;5.322;2023-04-28T15:38:20;13.10;99.90
11818;DHT22;5966;52.402;5.322;2023-04-28T15:40:48;13.10;99.90
11818;DHT22;5966;52.402;5.322;2023-04-28T15:43:16;13.10;99.90
11818;DHT22;5966;52.402;5.322;2023-04-28T15:45:44;13.10;99.90
11818;DHT22;5966;52.402;5.322;2023-04-28T15:48:13;13.10;99.90
11818;DHT22;5966;52.402;5.322;2023-04-28T15:50:42;13.10;99.90
11818;DHT22;5966;52.402;5.322;2023-04-28T15:53:10;13.00;99.90
11818;DHT22;5966;52.402;5.322;2023-04-28T15:55:39;13.00;99.90
11818;DHT22;5966;52.402;5.322;2023-04-28T15:58:07;13.00;99.90
11818;DHT22;5966;52.402;5.322;2023-04-28T16:00:36;13.00;99.90
11818;DHT22;5966;52.402;5.322;2023-04-28T16:03:06;12.90;99.90
11818;DHT22;5966;52.402;5.322;2023-04-28T16:05:34;12.90;99.90
11818;DHT22;5966;52.402;5.322;2023-04-28T16:08:02;12.80;99.90